Time;durP1;ratioP1;P1;durP2;ratioP2;P2;SDS_P1;SDS_P2;PMS_P1;PMS_P2;Temp;Humidity;BMP_temperature;BMP_pressure;BME280_temperature;BME280_humidity;BME280_pressure;Samples;Min_cycle;Max_cycle;Signal;HPM_P1;HPM_P2
2023/01/22 00:03:29;;;;;;;8.90;2.60;;;;;;;10.37;77.75;102460.14;103611;1299;544995;-66
2023/01/22 00:05:56;;;;;;;9.90;3.20;;;;;;;10.32;77.75;102462.21;105886;1288;22536;-66
2023/01/22 00:08:23;;;;;;;13.00;3.50;;;;;;;10.41;77.28;102458.95;106648;1278;25298;-66
2023/01/22 00:10:51;;;;;;;9.20;3.20;;;;;;;10.45;77.03;102456.38;106681;1277;22547;-65
2023/01/22 00:13:19;;;;;;;11.10;3.30;;;;;;;10.46;76.94;102460.73;106618;1278;22534;-66
2023/01/22 00:15:46;;;;;;;22.90;7.70;;;;;;;10.45;76.72;102465.23;106830;1273;24264;-67
2023/01/22 00:18:14;;;;;;;26.10;9.90;;;;;;;10.41;76.45;102462.78;106807;1268;221081;-67
2023/01/22 00:20:45;;;;;;;18.70;8.50;;;;;;;10.37;76.37;102460.14;106428;1275;22635;-66
2023/01/22 00:23:12;;;;;;;23.10;10.00;;;;;;;10.33;76.09;102463.95;106635;1274;24744;-68
2023/01/22 00:25:39;;;;;;;20.70;9.90;;;;;;;10.29;75.99;102465.31;106881;1272;24400;-66
2023/01/22 00:28:06;;;;;;;18.30;9.70;;;;;;;10.27;76.03;102468.58;106845;1272;24785;-65
2023/01/22 00:30:33;;;;;;;23.10;10.80;;;;;;;10.25;76.05;102470.30;107063;1273;23002;-65
2023/01/22 00:33:01;;;;;;;17.90;10.70;;;;;;;10.23;76.18;102469.08;106875;1272;22527;-66
2023/01/22 00:35:28;;;;;;;22.80;12.40;;;;;;;10.24;76.14;102470.81;106627;1273;24582;-66
2023/01/22 00:37:55;;;;;;;22.80;13.60;;;;;;;10.24;76.05;102473.42;106674;1275;22542;-65
2023/01/22 00:40:22;;;;;;;24.60;13.50;;;;;;;10.25;75.95;102475.16;106991;1269;22622;-66
2023/01/22 00:42:49;;;;;;;33.90;16.30;;;;;;;10.27;75.91;102475.52;106859;1261;25235;-66
2023/01/22 00:45:16;;;;;;;35.70;17.50;;;;;;;10.28;75.87;102479.69;106835;1269;22642;-66
2023/01/22 00:47:43;;;;;;;29.70;17.70;;;;;;;10.27;76.00;102480.20;106853;1269;22523;-67
2023/01/22 00:50:10;;;;;;;37.80;20.10;;;;;;;10.26;75.82;102486.08;106784;1275;22545;-66
2023/01/22 00:52:37;;;;;;;32.50;18.70;;;;;;;10.24;75.74;102485.39;106778;1272;22645;-66
2023/01/22 00:55:05;;;;;;;40.30;21.80;;;;;;;10.22;75.69;102490.58;106886;1269;24287;-66
2023/01/22 00:57:33;;;;;;;40.20;21.90;;;;;;;10.20;75.50;102495.23;106701;1274;23025;-66
2023/01/22 04:14:56;;;;;;;33.70;18.40;;;;;;;7.00;98.47;102586.99;104770;1279;558079;-60
2023/01/22 04:17:25;;;;;;;36.40;18.70;;;;;;;8.10;89.70;102586.91;106290;1280;25431;-60
2023/01/22 04:20:11;;;;;;;38.80;19.80;;;;;;;8.30;87.25;102590.38;105550;1282;1003112;-61
2023/01/22 04:23:05;;;;;;;43.30;20.50;;;;;;;8.41;86.06;102590.05;105923;1287;25354;-61
2023/01/22 04:25:34;;;;;;;36.20;18.80;;;;;;;8.46;85.55;102591.86;105641;1288;25517;-61
2023/01/22 04:28:01;;;;;;;37.50;19.60;;;;;;;8.52;85.14;102598.70;105506;1286;407490;-61
2023/01/22 04:30:29;;;;;;;42.20;19.80;;;;;;;8.57;84.65;102603.45;105769;1286;25350;-61
2023/01/22 04:33:07;;;;;;;29.80;17.80;;;;;;;8.61;84.38;102605.08;105714;1291;22552;-61
2023/01/22 04:35:55;;;;;;;34.70;16.70;;;;;;;8.66;83.94;102613.46;105871;1287;26506;-61
2023/01/22 04:38:22;;;;;;;30.10;14.70;;;;;;;8.69;83.77;102615.06;106020;1285;22726;-60
2023/01/22 04:40:51;;;;;;;24.70;15.40;;;;;;;8.72;83.42;102619.07;105572;1292;25446;-61
2023/01/22 04:43:18;;;;;;;27.00;15.20;;;;;;;8.74;83.06;102621.02;105821;1291;25500;-61
2023/01/22 04:45:49;;;;;;;27.10;14.10;;;;;;;8.77;82.81;102620.55;105889;1285;26764;-60
2023/01/22 04:48:18;;;;;;;23.60;14.30;;;;;;;8.81;82.32;102622.86;105741;1286;24269;-60
2023/01/22 04:50:46;;;;;;;24.50;14.00;;;;;;;8.85;82.04;102626.56;104973;1288;1002948;-61
2023/01/22 04:53:13;;;;;;;28.30;14.30;;;;;;;8.90;81.82;102627.67;105597;1288;25389;-60
2023/01/22 04:55:41;;;;;;;28.80;14.50;;;;;;;8.95;81.36;102631.55;106334;1260;25491;-61
2023/01/22 04:58:09;;;;;;;22.30;14.20;;;;;;;8.99;80.80;102635.06;106293;1277;25575;-61
2023/01/22 05:00:37;;;;;;;25.20;13.10;;;;;;;9.01;80.38;102638.55;106698;1273;22643;-60
2023/01/22 05:03:05;;;;;;;25.40;13.30;;;;;;;9.01;80.07;102633.55;106783;1270;25402;-61
2023/01/22 05:05:33;;;;;;;23.70;12.50;;;;;;;9.04;79.80;102632.90;105910;1273;1003000;-61
2023/01/22 05:08:01;;;;;;;26.30;13.40;;;;;;;9.07;79.40;102635.52;106090;1271;1003021;-61
2023/01/22 05:10:29;;;;;;;21.30;12.10;;;;;;;9.09;79.11;102638.34;106605;1277;25424;-60
2023/01/22 05:13:01;;;;;;;21.40;12.60;;;;;;;9.10;78.75;102638.19;106974;1270;25322;-60
2023/01/22 05:15:28;;;;;;;24.10;13.10;;;;;;;9.11;78.46;102639.40;106765;1273;24218;-61
2023/01/22 05:18:01;;;;;;;22.20;11.80;;;;;;;9.10;77.97;102640.78;106813;1274;25353;-60
2023/01/22 05:20:29;;;;;;;23.10;12.20;;;;;;;9.09;77.62;102644.22;107091;1267;25341;-60
2023/01/22 05:22:58;;;;;;;23.70;12.30;;;;;;;9.06;77.43;102646.26;106203;1270;1003334;-59
2023/01/22 05:25:26;;;;;;;29.10;15.00;;;;;;;9.04;77.20;102650.73;107193;1267;25398;-59
2023/01/22 05:27:55;;;;;;;38.80;22.70;;;;;;;9.02;76.85;102650.36;106865;1267;22527;-59
2023/01/22 05:30:48;;;;;;;32.70;20.00;;;;;;;9.00;76.68;102657.41;106915;1256;25379;-60
2023/01/22 05:33:29;;;;;;;25.60;15.00;;;;;;;8.99;76.50;102662.08;107101;1269;25360;-60
2023/01/22 05:35:57;;;;;;;24.60;13.70;;;;;;;8.98;76.19;102664.66;107016;1267;25408;-58
2023/01/22 05:38:25;;;;;;;27.10;13.70;;;;;;;8.97;75.96;102665.86;107060;1267;22643;-59
2023/01/22 05:40:52;;;;;;;25.60;13.60;;;;;;;8.93;75.64;102672.89;107056;1267;22549;-59
2023/01/22 05:43:25;;;;;;;28.30;14.60;;;;;;;8.91;75.47;102676.50;107155;1267;25390;-61
2023/01/22 05:46:01;;;;;;;26.00;13.90;;;;;;;8.89;75.26;102682.17;106902;1270;24272;-59
2023/01/22 05:48:48;;;;;;;27.50;15.90;;;;;;;8.88;75.25;102684.06;106796;1267;24389;-59
2023/01/22 05:51:30;;;;;;;22.90;14.20;;;;;;;8.86;74.72;102689.92;107032;1267;25353;-59
2023/01/22 05:53:59;;;;;;;23.40;13.80;;;;;;;8.82;74.47;102698.16;107087;1270;25417;-59
2023/01/22 05:56:30;;;;;;;25.00;13.00;;;;;;;8.80;74.21;102702.27;106779;1267;25340;-60
2023/01/22 05:58:57;;;;;;;21.40;13.90;;;;;;;8.78;74.16;102701.38;107082;1269;24217;-59
2023/01/22 06:01:24;;;;;;;24.40;14.20;;;;;;;8.77;74.03;102705.50;106886;1254;25331;-60
2023/01/22 06:03:52;;;;;;;24.30;13.40;;;;;;;8.75;73.79;102705.13;106922;1267;22545;-59
2023/01/22 06:06:22;;;;;;;22.70;12.60;;;;;;;8.72;73.80;102709.56;107064;1267;22640;-58
2023/01/22 06:08:51;;;;;;;22.40;12.50;;;;;;;8.70;73.64;102713.18;106275;1267;1002852;-59
2023/01/22 06:11:20;;;;;;;20.80;13.40;;;;;;;8.69;73.51;102717.99;107010;1252;22533;-59
2023/01/22 06:13:47;;;;;;;23.40;13.20;;;;;;;8.66;73.45;102723.50;107078;1267;22535;-60
2023/01/22 06:16:16;;;;;;;20.40;12.50;;;;;;;8.64;73.21;102724.15;107062;1267;25337;-58
2023/01/22 06:18:53;;;;;;;24.40;14.40;;;;;;;8.59;73.16;102727.70;106893;1267;25343;-59
2023/01/22 06:21:21;;;;;;;22.70;13.30;;;;;;;8.57;73.16;102731.98;107046;1267;22523;-59
2023/01/22 06:23:48;;;;;;;18.60;12.50;;;;;;;8.55;73.10;102735.58;106114;1273;1002970;-59
2023/01/22 06:26:16;;;;;;;21.60;12.60;;;;;;;8.54;73.16;102743.68;107089;1273;26704;-59
2023/01/22 06:28:43;;;;;;;18.00;11.40;;;;;;;8.53;73.04;102747.14;107009;1270;22828;-61
2023/01/22 06:31:11;;;;;;;22.60;12.80;;;;;;;8.53;73.07;102749.04;107077;1269;25334;-58
2023/01/22 06:33:40;;;;;;;20.70;12.80;;;;;;;8.54;72.97;102748.36;107072;1269;22573;-60
2023/01/22 06:36:08;;;;;;;20.50;12.50;;;;;;;8.54;72.88;102743.34;107127;1267;25504;-60
2023/01/22 06:38:36;;;;;;;23.90;12.20;;;;;;;8.52;72.55;102746.94;106861;1267;22557;-60
2023/01/22 06:41:04;;;;;;;19.10;11.70;;;;;;;8.47;72.42;102747.19;106755;1275;24419;-60
2023/01/22 06:43:32;;;;;;;23.10;13.00;;;;;;;8.41;72.39;102751.58;106847;1267;25341;-58
2023/01/22 06:45:59;;;;;;;18.00;11.10;;;;;;;8.37;72.36;102752.19;106749;1267;25010;-58
2023/01/22 06:48:50;;;;;;;26.50;14.10;;;;;;;8.34;72.60;102755.75;107157;1266;25332;-59
2023/01/22 06:51:16;;;;;;;20.70;12.10;;;;;;;8.33;72.60;102766.10;107100;1266;25464;-59
2023/01/22 06:53:45;;;;;;;23.00;12.70;;;;;;;8.28;72.56;102766.52;107077;1266;25340;-60
2023/01/22 06:56:12;;;;;;;18.90;11.90;;;;;;;8.28;72.63;102775.36;107029;1266;22581;-60
2023/01/22 06:58:39;;;;;;;18.40;12.00;;;;;;;8.29;72.59;102774.49;106723;1267;22597;-60
2023/01/22 07:01:06;;;;;;;18.00;11.70;;;;;;;8.27;72.49;102784.50;106688;1267;25418;-61
2023/01/22 07:03:34;;;;;;;19.40;12.50;;;;;;;8.24;72.57;102787.70;107042;1266;23400;-58
2023/01/22 07:06:02;;;;;;;18.90;11.70;;;;;;;8.24;72.61;102793.58;106966;1270;25421;-57
2023/01/22 07:08:30;;;;;;;18.20;11.50;;;;;;;8.16;73.19;102796.17;107189;1267;22523;-59
2023/01/22 07:10:58;;;;;;;21.90;12.60;;;;;;;8.24;72.87;102800.16;107093;1266;25347;-59
2023/01/22 07:13:25;;;;;;;18.80;11.80;;;;;;;8.31;72.35;102804.12;106867;1267;25555;-59
2023/01/22 07:15:52;;;;;;;19.50;12.00;;;;;;;8.31;72.34;102803.60;107079;1267;25356;-59
2023/01/22 07:18:22;;;;;;;22.00;13.40;;;;;;;8.32;72.32;102808.45;107014;1274;25359;-59
2023/01/22 07:20:50;;;;;;;22.70;13.00;;;;;;;8.31;72.29;102812.58;107002;1269;22769;-58
2023/01/22 07:23:17;;;;;;;25.70;16.40;;;;;;;8.32;72.29;102813.11;106834;1269;25344;-58
2023/01/22 07:25:45;;;;;;;21.00;14.30;;;;;;;8.33;72.11;102816.60;106882;1269;25515;-60
2023/01/22 07:28:16;;;;;;;24.90;14.20;;;;;;;8.37;71.97;102818.75;106852;1269;25394;-58
2023/01/22 07:30:45;;;;;;;31.80;12.20;;;;;;;8.40;71.77;102819.36;107149;1266;22531;-60
2023/01/22 07:33:13;;;;;;;19.70;13.20;;;;;;;8.42;71.67;102824.41;107070;1266;25369;-60
2023/01/22 07:35:40;;;;;;;22.30;14.70;;;;;;;8.44;71.60;102829.27;107042;1266;24317;-60
2023/01/22 07:38:07;;;;;;;21.00;14.30;;;;;;;8.46;71.56;102834.87;106953;1269;25408;-60
2023/01/22 07:40:35;;;;;;;22.50;13.20;;;;;;;8.48;71.20;102836.11;107243;1266;25379;-60
2023/01/22 07:43:05;;;;;;;23.90;13.80;;;;;;;8.48;70.95;102835.25;107122;1251;25359;-60
2023/01/22 07:45:35;;;;;;;21.40;13.00;;;;;;;8.48;70.81;102839.74;107044;1267;25350;-60
2023/01/22 07:48:06;;;;;;;21.20;13.60;;;;;;;8.48;70.72;102845.96;107122;1267;25838;-60
2023/01/22 07:50:35;;;;;;;20.10;13.50;;;;;;;8.47;70.52;102846.81;106082;1267;1002446;-61
2023/01/22 07:53:02;;;;;;;21.10;13.40;;;;;;;8.47;70.47;102850.45;107027;1270;25369;-60
2023/01/22 07:55:31;;;;;;;22.90;13.60;;;;;;;8.46;70.16;102850.95;106518;1266;1003753;-60
2023/01/22 07:58:00;;;;;;;19.00;12.50;;;;;;;8.46;70.23;102848.87;107094;1266;25404;-60
2023/01/22 08:00:27;;;;;;;21.00;13.30;;;;;;;8.45;70.18;102848.84;107129;1266;25368;-60
2023/01/22 08:02:58;;;;;;;22.80;13.10;;;;;;;8.44;69.99;102851.24;107073;1266;25369;-59
2023/01/22 08:05:25;;;;;;;20.50;13.10;;;;;;;8.44;69.91;102853.16;106128;1272;1003747;-60
2023/01/22 08:07:52;;;;;;;19.30;13.30;;;;;;;8.46;69.92;102855.43;107120;1267;25442;-60
2023/01/22 08:10:20;;;;;;;19.90;12.40;;;;;;;8.46;69.83;102853.36;107163;1266;25369;-60
2023/01/22 08:12:49;;;;;;;25.10;13.50;;;;;;;8.47;69.77;102856.67;107018;1274;26578;-59
2023/01/22 08:15:16;;;;;;;19.80;13.30;;;;;;;8.46;69.67;102861.67;107136;1266;25570;-59
2023/01/22 08:17:43;;;;;;;21.50;13.00;;;;;;;8.48;69.67;102859.82;107023;1269;25387;-60
2023/01/22 08:20:11;;;;;;;19.90;12.80;;;;;;;8.51;69.48;102862.64;106776;1267;25478;-59
2023/01/22 08:22:38;;;;;;;25.80;13.40;;;;;;;8.52;69.58;102859.54;107094;1266;25341;-60
2023/01/22 08:25:06;;;;;;;30.80;17.30;;;;;;;8.54;69.51;102862.35;107002;1266;25490;-59
2023/01/22 08:27:34;;;;;;;26.00;15.90;;;;;;;8.55;69.51;102858.56;106856;1267;22527;-59
2023/01/22 08:30:02;;;;;;;24.10;15.00;;;;;;;8.57;69.51;102866.22;106910;1267;25374;-60
2023/01/22 08:32:30;;;;;;;23.60;13.00;;;;;;;8.60;69.38;102861.95;106794;1266;22534;-60
2023/01/22 08:34:57;;;;;;;20.20;12.40;;;;;;;8.61;69.31;102863.19;106243;1267;1003714;-60
2023/01/22 08:37:24;;;;;;;20.80;13.60;;;;;;;8.63;69.27;102865.98;107052;1270;24241;-59
2023/01/22 08:39:51;;;;;;;23.30;13.60;;;;;;;8.64;69.11;102866.70;107035;1267;25377;-59
2023/01/22 08:42:18;;;;;;;21.50;13.50;;;;;;;8.64;69.04;102868.44;107132;1267;25337;-60
2023/01/22 08:44:45;;;;;;;24.40;13.00;;;;;;;8.64;68.93;102866.88;107040;1271;25290;-59
2023/01/22 08:47:12;;;;;;;23.20;13.90;;;;;;;8.65;68.63;102869.48;107097;1251;25523;-59
2023/01/22 08:49:39;;;;;;;22.40;14.30;;;;;;;8.62;68.41;102869.45;107007;1266;25490;-59
2023/01/22 08:52:07;;;;;;;25.50;15.20;;;;;;;8.61;68.44;102871.66;107100;1266;25349;-59
2023/01/22 08:54:34;;;;;;;24.80;14.30;;;;;;;8.58;68.22;102872.30;107045;1266;25522;-61
2023/01/22 08:57:02;;;;;;;21.70;13.10;;;;;;;8.54;67.95;102869.62;107044;1267;25405;-60
2023/01/22 08:59:29;;;;;;;20.00;12.80;;;;;;;8.49;67.91;102873.66;107080;1267;25417;-58
2023/01/22 09:01:58;;;;;;;21.10;13.50;;;;;;;8.44;67.96;102876.17;107058;1270;22623;-59
2023/01/22 09:04:26;;;;;;;22.10;13.10;;;;;;;8.40;67.97;102877.64;107210;1266;22560;-60
2023/01/22 09:06:53;;;;;;;20.50;12.30;;;;;;;8.37;67.92;102881.53;106903;1272;25402;-60
2023/01/22 09:09:20;;;;;;;20.20;12.70;;;;;;;8.34;68.02;102877.31;106806;1269;22615;-57
2023/01/22 09:11:47;;;;;;;21.60;12.60;;;;;;;8.31;68.02;102880.02;105998;1269;1002866;-59
2023/01/22 09:14:15;;;;;;;20.60;13.50;;;;;;;8.27;67.83;102877.69;106776;1269;22695;-60
2023/01/22 09:16:41;;;;;;;18.00;13.00;;;;;;;8.22;67.80;102875.14;106955;1269;24279;-58
2023/01/22 09:19:09;;;;;;;22.60;13.60;;;;;;;8.17;67.96;102878.67;106794;1269;25521;-60
2023/01/22 09:21:36;;;;;;;17.90;12.00;;;;;;;8.14;68.07;102881.35;106678;1269;23177;-58
2023/01/22 09:24:05;;;;;;;20.30;12.10;;;;;;;8.12;68.00;102881.32;106758;1269;25472;-61
2023/01/22 09:26:33;;;;;;;18.00;13.70;;;;;;;8.09;67.96;102879.70;106808;1270;22515;-58
2023/01/22 09:29:03;;;;;;;18.70;12.20;;;;;;;8.07;67.98;102879.13;106805;1269;25372;-59
2023/01/22 09:31:34;;;;;;;18.70;12.80;;;;;;;8.04;68.01;102878.73;106821;1269;25504;-60
2023/01/22 09:34:01;;;;;;;16.80;12.10;;;;;;;8.03;68.10;102874.89;106834;1269;22634;-58
2023/01/22 09:36:29;;;;;;;18.50;11.60;;;;;;;8.00;68.13;102876.21;106917;1269;25373;-59
2023/01/22 09:38:56;;;;;;;20.10;11.90;;;;;;;8.00;68.10;102879.31;107000;1266;24228;-60
2023/01/22 09:41:33;;;;;;;19.90;12.80;;;;;;;8.00;68.09;102878.81;106838;1274;25363;-58
2023/01/22 09:44:29;;;;;;;16.70;11.60;;;;;;;8.00;68.16;102880.54;106846;1269;25411;-58
2023/01/22 09:47:02;;;;;;;18.80;11.40;;;;;;;8.00;68.12;102882.60;107075;1266;24352;-60
2023/01/22 09:49:55;;;;;;;16.50;11.70;;;;;;;8.00;68.13;102883.65;106953;1270;25433;-58
2023/01/22 09:52:27;;;;;;;22.20;12.80;;;;;;;8.01;67.97;102885.23;106848;1270;22567;-58
2023/01/22 09:54:54;;;;;;;16.80;11.40;;;;;;;8.01;67.95;102892.31;106418;1266;1002994;-57
2023/01/22 09:57:22;;;;;;;22.40;12.50;;;;;;;8.02;68.01;102896.48;107100;1266;25341;-60
2023/01/22 09:59:58;;;;;;;13.90;10.60;;;;;;;8.05;68.15;102902.25;107164;1269;25351;-60
2023/01/22 13:09:23;;;;;;;14.50;12.00;;;;;;;4.82;89.21;102930.53;104569;1288;560653;-52
2023/01/22 13:11:50;;;;;;;16.80;12.50;;;;;;;5.90;81.32;102927.20;106015;1284;25428;-51
2023/01/22 13:14:20;;;;;;;19.90;13.10;;;;;;;6.05;80.07;102925.46;106067;1281;24285;-52
2023/01/22 13:16:56;;;;;;;16.80;13.00;;;;;;;6.15;79.37;102930.94;105222;1281;1002883;-52
2023/01/22 13:19:25;;;;;;;17.10;12.10;;;;;;;6.22;78.73;102928.55;105825;1283;25342;-51
2023/01/22 13:21:56;;;;;;;15.80;12.00;;;;;;;6.27;78.31;102929.77;105866;1284;130192;-52
2023/01/22 13:24:23;;;;;;;13.60;11.20;;;;;;;6.31;77.94;102935.76;106328;1276;24187;-52
2023/01/22 13:26:55;;;;;;;12.40;10.00;;;;;;;6.36;77.64;102935.88;106271;1280;25233;-51
2023/01/22 13:29:35;;;;;;;13.40;11.00;;;;;;;6.39;77.33;102939.61;106399;1276;24387;-53
2023/01/22 13:32:13;;;;;;;15.50;11.70;;;;;;;6.43;77.13;102937.83;106374;1278;23917;-53
2023/01/22 13:34:40;;;;;;;14.90;11.80;;;;;;;6.47;76.97;102944.34;106338;1276;24236;-53
2023/01/22 13:37:21;;;;;;;14.90;11.70;;;;;;;6.52;76.75;102947.23;106314;1283;25399;-53
2023/01/22 13:39:52;;;;;;;13.40;10.30;;;;;;;6.58;76.55;102947.92;106296;1276;25397;-53
2023/01/22 13:42:19;;;;;;;12.80;10.40;;;;;;;6.61;76.19;102949.73;106436;1275;25326;-53
2023/01/22 13:44:50;;;;;;;12.00;9.00;;;;;;;6.61;75.74;102951.27;106281;1276;22595;-53
2023/01/22 13:47:32;;;;;;;11.40;8.90;;;;;;;6.59;75.57;102950.88;106392;1276;22537;-53
2023/01/22 13:49:59;;;;;;;11.30;9.10;;;;;;;6.59;75.47;102949.52;106349;1276;25487;-53
2023/01/22 13:52:27;;;;;;;9.90;8.60;;;;;;;6.60;75.37;102943.67;106252;1275;22598;-53
2023/01/22 13:54:59;;;;;;;10.60;9.00;;;;;;;6.60;75.27;102944.55;106153;1276;25468;-53
2023/01/22 13:57:26;;;;;;;10.20;8.60;;;;;;;6.63;75.22;102944.59;106260;1273;25329;-52
2023/01/22 13:59:55;;;;;;;10.20;9.00;;;;;;;6.64;75.27;102947.23;106518;1272;25343;-53
2023/01/22 14:02:31;;;;;;;13.00;9.70;;;;;;;6.67;75.26;102953.71;106649;1272;25316;-54
2023/01/22 14:04:58;;;;;;;14.30;11.90;;;;;;;6.68;75.02;102951.84;105956;1276;1002389;-53
2023/01/22 14:07:32;;;;;;;13.20;11.10;;;;;;;6.69;74.98;102950.14;106683;1272;22535;-53
2023/01/22 14:10:17;;;;;;;11.20;9.70;;;;;;;6.69;74.64;102951.16;106719;1271;25340;-53
2023/01/22 14:12:45;;;;;;;9.40;8.40;;;;;;;6.68;74.57;102950.80;105983;1276;1002958;-53
2023/01/22 14:15:17;;;;;;;11.70;9.20;;;;;;;6.66;74.50;102948.16;106712;1272;25480;-53
2023/01/22 14:17:44;;;;;;;13.70;10.30;;;;;;;6.64;74.54;102952.23;106768;1256;22538;-53
2023/01/22 14:20:11;;;;;;;11.00;9.20;;;;;;;6.63;74.67;102952.02;106706;1272;25376;-53
2023/01/22 14:22:39;;;;;;;13.90;10.70;;;;;;;6.63;74.74;102951.52;105902;1272;1003798;-53
2023/01/22 14:25:07;;;;;;;12.80;10.20;;;;;;;6.64;74.82;102953.44;106238;1279;25422;-53
2023/01/22 14:27:46;;;;;;;14.10;10.70;;;;;;;6.65;74.70;102954.52;106447;1276;25488;-53
2023/01/22 14:30:15;;;;;;;13.20;10.30;;;;;;;6.64;74.46;102951.53;105993;1272;1002763;-53
2023/01/22 14:32:43;;;;;;;13.80;10.90;;;;;;;6.61;74.47;102953.69;106384;1278;22628;-53
2023/01/22 14:35:18;;;;;;;14.60;11.20;;;;;;;6.58;74.40;102954.65;106301;1277;22594;-53
2023/01/22 14:37:45;;;;;;;16.50;12.30;;;;;;;6.55;74.43;102954.55;105559;1272;1003528;-53
2023/01/22 14:40:13;;;;;;;17.30;11.90;;;;;;;6.54;74.50;102957.47;106327;1272;24324;-53
2023/01/22 14:42:41;;;;;;;16.70;12.40;;;;;;;6.54;74.43;102963.50;106263;1272;22531;-53
2023/01/22 14:45:09;;;;;;;20.90;14.80;;;;;;;6.51;74.40;102962.05;106118;1277;25329;-54
2023/01/22 14:47:36;;;;;;;23.80;15.70;;;;;;;6.47;74.48;102967.10;106155;1273;25351;-53
2023/01/22 14:50:05;;;;;;;18.90;13.50;;;;;;;6.48;74.69;102969.17;106745;1272;25423;-53
2023/01/22 14:52:33;;;;;;;21.10;14.80;;;;;;;6.49;74.78;102973.36;106724;1272;25237;-53
2023/01/22 14:55:00;;;;;;;19.70;15.00;;;;;;;6.50;74.67;102977.00;106909;1273;24234;-53
2023/01/22 14:57:27;;;;;;;21.40;14.30;;;;;;;6.51;74.76;102979.80;106737;1273;25402;-53
2023/01/22 14:59:54;;;;;;;22.10;15.40;;;;;;;6.53;74.48;102980.38;105988;1273;1002948;-53
2023/01/22 15:02:22;;;;;;;25.60;17.40;;;;;;;6.55;74.56;102979.23;106763;1273;25370;-53
2023/01/22 15:04:49;;;;;;;26.20;19.40;;;;;;;6.56;74.25;102977.71;106830;1275;25489;-53
2023/01/22 15:07:16;;;;;;;27.60;18.90;;;;;;;6.55;74.17;102977.86;106650;1272;25408;-53
2023/01/22 15:09:43;;;;;;;27.40;18.60;;;;;;;6.57;74.33;102979.80;106774;1273;24225;-53
2023/01/22 15:12:10;;;;;;;25.60;17.40;;;;;;;6.57;74.37;102979.64;106673;1272;25346;-53
2023/01/22 15:14:38;;;;;;;25.90;16.50;;;;;;;6.56;74.13;102979.27;106828;1273;25501;-52
2023/01/22 15:17:05;;;;;;;23.40;16.10;;;;;;;6.53;74.14;102974.36;106756;1271;25380;-53
2023/01/22 15:19:33;;;;;;;27.60;18.60;;;;;;;6.53;74.15;102973.65;106031;1273;1002969;-53
2023/01/22 15:22:08;;;;;;;26.40;18.10;;;;;;;6.53;74.06;102974.34;106308;1277;25325;-53
2023/01/22 15:24:38;;;;;;;23.80;16.30;;;;;;;6.54;73.96;102979.89;106370;1276;25481;-53
2023/01/22 15:27:06;;;;;;;27.80;19.10;;;;;;;6.52;73.88;102987.75;106636;1273;25406;-53
2023/01/22 15:29:33;;;;;;;21.90;16.00;;;;;;;6.50;74.10;102992.20;106673;1271;25353;-53
2023/01/22 15:32:02;;;;;;;26.70;16.20;;;;;;;6.52;74.31;102991.20;106526;1272;25446;-54
2023/01/22 15:34:30;;;;;;;23.40;15.00;;;;;;;6.54;73.94;102987.11;106654;1276;24298;-53
2023/01/22 15:36:57;;;;;;;25.00;15.90;;;;;;;6.56;73.81;102989.77;106644;1273;25457;-53
2023/01/22 15:39:28;;;;;;;23.70;15.70;;;;;;;6.59;73.89;102991.92;106721;1272;25510;-53
2023/01/22 15:41:56;;;;;;;25.50;16.40;;;;;;;6.60;73.76;102989.20;106769;1273;25369;-53
2023/01/22 15:44:23;;;;;;;27.20;17.30;;;;;;;6.61;73.71;102990.59;106766;1270;25363;-53
2023/01/22 15:46:50;;;;;;;24.70;16.20;;;;;;;6.58;73.53;102993.13;106600;1273;25497;-54
2023/01/22 15:49:17;;;;;;;20.70;14.30;;;;;;;6.57;73.67;102999.13;106542;1272;24359;-53
2023/01/22 15:51:44;;;;;;;22.10;14.20;;;;;;;6.56;73.77;102999.63;106706;1259;24034;-53
2023/01/22 15:54:13;;;;;;;23.40;15.80;;;;;;;6.56;73.59;103003.59;106834;1269;25332;-53
2023/01/22 15:56:41;;;;;;;20.70;14.10;;;;;;;6.59;73.55;103003.66;106698;1274;25281;-53
2023/01/22 15:59:09;;;;;;;21.50;14.40;;;;;;;6.58;73.33;103006.06;105747;1272;1003005;-53
2023/01/22 16:01:36;;;;;;;21.80;14.30;;;;;;;6.54;73.20;103004.36;106566;1266;24215;-53
2023/01/22 19:54:09;;;;;;;62.10;36.10;;;;;;;4.02;94.86;103112.09;104997;1292;557868;-60
2023/01/22 19:56:37;;;;;;;64.20;34.70;;;;;;;5.12;85.35;103105.55;105763;1284;22537;-58
2023/01/22 19:59:07;;;;;;;58.20;34.20;;;;;;;5.31;83.51;103105.71;105963;1280;25552;-59
2023/01/22 20:01:35;;;;;;;65.90;36.60;;;;;;;5.39;82.57;103110.00;105771;1280;22565;-59
2023/01/22 20:04:03;;;;;;;55.80;33.50;;;;;;;5.47;82.24;103113.55;105929;1285;25384;-59
2023/01/22 20:06:31;;;;;;;61.60;34.40;;;;;;;5.50;81.88;103114.52;105955;1283;218109;-59
2023/01/22 20:08:58;;;;;;;56.90;33.50;;;;;;;5.52;81.62;103115.10;106246;1283;25443;-58
2023/01/22 20:11:26;;;;;;;55.40;33.60;;;;;;;5.56;81.27;103113.70;105113;1279;1003744;-59
2023/01/22 20:13:53;;;;;;;60.80;36.20;;;;;;;5.61;80.91;103112.50;106046;1279;25435;-59
2023/01/22 20:16:22;;;;;;;58.80;35.50;;;;;;;5.65;80.72;103119.39;106194;1280;25575;-60
2023/01/22 20:18:50;;;;;;;61.90;35.20;;;;;;;5.70;80.45;103117.16;105513;1279;1003705;-59
2023/01/22 20:21:18;;;;;;;55.80;34.00;;;;;;;5.76;80.23;103119.59;106368;1279;25269;-59
2023/01/22 20:23:46;;;;;;;49.70;32.30;;;;;;;5.81;79.91;103124.42;106360;1279;25383;-59
2023/01/22 20:26:14;;;;;;;54.90;32.90;;;;;;;5.84;79.44;103126.30;106329;1279;25389;-59
2023/01/22 20:28:41;;;;;;;49.00;31.90;;;;;;;5.84;79.02;103129.89;106183;1279;25441;-60
2023/01/22 20:31:18;;;;;;;47.60;30.00;;;;;;;5.84;78.79;103129.90;106274;1283;25496;-59
2023/01/22 20:33:47;;;;;;;48.20;29.60;;;;;;;5.86;78.44;103126.89;106028;1283;22637;-59
2023/01/22 20:36:15;;;;;;;43.40;30.00;;;;;;;5.86;78.11;103130.70;105915;1272;25389;-59
2023/01/22 20:38:44;;;;;;;46.50;30.30;;;;;;;5.87;77.96;103134.84;105517;1286;25511;-58
2023/01/22 20:41:12;;;;;;;43.70;29.00;;;;;;;5.88;77.73;103138.99;105942;1280;22647;-58
2023/01/22 20:43:40;;;;;;;48.70;31.30;;;;;;;5.89;77.70;103138.70;105814;1283;25432;-59
2023/01/22 20:46:10;;;;;;;48.80;29.40;;;;;;;5.90;77.53;103139.78;105925;1283;22656;-59
2023/01/22 20:48:40;;;;;;;44.90;30.30;;;;;;;5.90;77.27;103140.29;106478;1272;25368;-59
2023/01/22 20:51:12;;;;;;;46.00;30.40;;;;;;;5.94;77.02;103146.30;106679;1279;25574;-59
2023/01/22 20:53:43;;;;;;;46.90;29.80;;;;;;;5.94;76.57;103144.04;106375;1272;25307;-58
2023/01/22 20:56:13;;;;;;;47.80;30.90;;;;;;;5.88;76.67;103145.91;106057;1272;1003035;-59
2023/01/22 20:58:40;;;;;;;42.40;27.50;;;;;;;5.86;76.53;103143.27;106682;1272;22598;-58
2023/01/22 21:01:10;;;;;;;43.30;29.70;;;;;;;5.87;76.54;103134.52;106345;1272;25344;-58
2023/01/22 21:03:37;;;;;;;43.50;27.90;;;;;;;5.88;76.21;103142.11;106663;1271;25383;-59
2023/01/22 21:06:06;;;;;;;49.70;28.40;;;;;;;5.86;76.13;103143.08;106638;1272;25413;-60
2023/01/22 21:08:33;;;;;;;38.90;26.00;;;;;;;5.85;76.04;103142.36;106650;1272;23901;-58
2023/01/22 21:11:05;;;;;;;45.70;27.20;;;;;;;5.86;75.84;103144.96;106714;1276;25425;-58
2023/01/22 21:13:32;;;;;;;;;;;;;;;5.85;75.65;103142.02;106741;1271;25397;-59
2023/01/22 21:16:07;;;;;;;44.60;27.10;;;;;;;5.85;75.59;103145.63;106413;1277;23145;-59
2023/01/22 21:18:35;;;;;;;39.80;26.00;;;;;;;5.85;75.54;103149.41;106858;1271;22615;-58
2023/01/22 21:21:03;;;;;;;34.00;24.50;;;;;;;5.86;75.41;103151.02;106648;1280;22548;-58
2023/01/22 21:23:30;;;;;;;37.40;24.60;;;;;;;5.87;75.10;103149.48;106695;1272;22538;-58
2023/01/22 21:26:11;;;;;;;37.40;23.60;;;;;;;5.86;75.13;103145.13;106273;1276;25505;-58
2023/01/22 21:28:39;;;;;;;33.60;24.30;;;;;;;5.88;75.15;103148.32;106687;1271;25376;-58
2023/01/22 21:31:07;;;;;;;33.90;22.20;;;;;;;5.89;75.33;103147.83;106035;1271;1002943;-58